Time;durP1;ratioP1;P1;durP2;ratioP2;P2;SDS_P1;SDS_P2;PMS_P1;PMS_P2;Temp;Humidity;BMP_temperature;BMP_pressure;BME280_temperature;BME280_humidity;BME280_pressure;Samples;Min_cycle;Max_cycle;Signal;HPM_P1;HPM_P2
2023/04/20 00:01:30;;;;;;;3.28;0.60;;;;;;;8.09;48.21;103110.69;5054746;28;20539;-68
2023/04/20 00:03:55;;;;;;;1.50;0.55;;;;;;;7.99;48.61;103118.63;5055602;28;20033;-68
2023/04/20 00:06:21;;;;;;;2.92;0.57;;;;;;;7.91;48.86;103107.69;5054918;28;20392;-68
2023/04/20 00:08:46;;;;;;;1.33;0.57;;;;;;;7.86;48.54;103106.34;5054495;28;20035;-68
2023/04/20 00:11:12;;;;;;;1.10;0.50;;;;;;;7.76;48.73;103107.09;5054356;28;20120;-68
2023/04/20 00:13:37;;;;;;;0.90;0.50;;;;;;;7.70;49.24;103110.25;5053536;28;20041;-68
2023/04/20 00:16:03;;;;;;;1.42;0.60;;;;;;;7.66;49.35;103113.31;5053431;28;20503;-68
2023/04/20 00:18:28;;;;;;;1.80;0.60;;;;;;;7.60;49.59;103105.78;5053213;28;20106;-67
2023/04/20 00:20:54;;;;;;;3.35;0.70;;;;;;;7.36;49.88;103087.16;5052208;28;20045;-68
2023/04/20 00:23:19;;;;;;;1.27;0.55;;;;;;;7.51;50.00;103115.38;5053306;28;20457;-68
2023/04/20 00:25:45;;;;;;;0.63;0.50;;;;;;;7.48;50.30;103107.59;5053086;28;20120;-68
2023/04/20 00:28:10;;;;;;;1.33;0.88;;;;;;;7.39;50.51;103106.50;5054623;28;20375;-67
2023/04/20 00:30:36;;;;;;;1.55;0.68;;;;;;;7.32;50.44;103105.31;5054368;28;20507;-68
2023/04/20 00:33:01;;;;;;;2.25;0.57;;;;;;;7.17;51.03;103085.06;5053584;28;20032;-68
2023/04/20 00:35:26;;;;;;;1.67;0.60;;;;;;;7.23;50.97;103103.34;5053005;28;20041;-67
2023/04/20 00:37:52;;;;;;;1.15;0.65;;;;;;;7.12;51.25;103100.63;5052361;28;20515;-68
2023/04/20 00:40:18;;;;;;;2.25;0.50;;;;;;;7.06;51.52;103102.00;5053645;28;20532;-68
2023/04/20 00:42:43;;;;;;;1.50;0.70;;;;;;;6.96;51.95;103099.16;5053440;28;20574;-67
2023/04/20 00:45:09;;;;;;;2.92;0.60;;;;;;;6.92;52.04;103089.69;5051863;28;20123;-67
2023/04/20 00:47:34;;;;;;;2.38;0.68;;;;;;;6.88;52.31;103090.03;5054251;28;20043;-68
2023/04/20 00:50:00;;;;;;;2.50;0.70;;;;;;;6.76;52.62;103071.28;5052372;28;20400;-67
2023/04/20 00:52:26;;;;;;;2.78;0.70;;;;;;;6.83;53.08;103087.72;5052474;28;20029;-68
2023/04/20 00:54:52;;;;;;;3.42;0.60;;;;;;;6.79;53.27;103075.53;5052584;28;20075;-67
2023/04/20 00:57:22;;;;;;;1.00;0.60;;;;;;;6.77;53.39;103077.47;5053621;28;20031;-67
2023/04/20 00:59:50;;;;;;;4.10;0.70;;;;;;;6.80;53.49;103082.59;5052502;28;20036;-68
2023/04/20 01:02:17;;;;;;;1.42;0.60;;;;;;;6.85;53.74;103083.06;5054001;28;20466;-67
2023/04/20 01:04:43;;;;;;;3.92;0.70;;;;;;;6.84;54.19;103084.06;5036568;28;20041;-68
2023/04/20 01:07:08;;;;;;;6.43;0.73;;;;;;;6.81;54.26;103092.31;5054749;28;20384;-68
2023/04/20 01:09:37;;;;;;;1.05;0.57;;;;;;;6.73;54.46;103081.38;5055663;28;20025;-68
2023/04/20 01:12:03;;;;;;;2.83;0.70;;;;;;;6.64;55.09;103087.41;5052022;28;20028;-68
2023/04/20 01:14:28;;;;;;;3.10;0.60;;;;;;;6.59;54.92;103085.09;5053968;28;20025;-68
2023/04/20 01:16:54;;;;;;;1.55;0.50;;;;;;;6.46;54.76;103074.47;5051866;28;20025;-68
2023/04/20 01:19:20;;;;;;;1.48;0.68;;;;;;;6.46;55.28;103095.03;5051525;28;20060;-68
2023/04/20 01:21:46;;;;;;;2.70;0.70;;;;;;;6.44;55.24;103092.44;5053569;28;20029;-67
2023/04/20 01:24:12;;;;;;;1.40;0.75;;;;;;;6.39;55.67;103094.63;5052690;28;20492;-67
2023/04/20 01:26:37;;;;;;;1.77;0.60;;;;;;;6.40;55.84;103095.47;5071512;28;20017;-68
2023/04/20 01:29:03;;;;;;;2.25;0.70;;;;;;;6.38;55.90;103092.91;5058803;28;20511;-68
2023/04/20 01:31:29;;;;;;;2.47;0.68;;;;;;;6.30;56.24;103084.63;5053352;28;20031;-68
2023/04/20 01:33:55;;;;;;;1.27;0.80;;;;;;;6.17;56.25;103059.78;5051616;28;20029;-68
2023/04/20 01:36:20;;;;;;;2.30;0.60;;;;;;;6.30;56.63;103080.13;5053518;28;20456;-68
2023/04/20 01:38:46;;;;;;;1.25;0.70;;;;;;;6.21;56.92;103079.97;5052534;28;20036;-68
2023/04/20 01:41:12;;;;;;;1.50;0.80;;;;;;;6.23;56.96;103078.03;5034140;28;20041;-68
2023/04/20 01:43:40;;;;;;;1.05;0.75;;;;;;;6.14;57.29;103068.88;5051368;28;20400;-68
2023/04/20 01:46:06;;;;;;;2.10;0.90;;;;;;;5.95;57.38;103042.66;5052651;28;20035;-67
2023/04/20 01:48:32;;;;;;;2.88;0.70;;;;;;;6.10;57.54;103073.59;5051493;28;20032;-68
2023/04/20 01:50:58;;;;;;;2.25;0.60;;;;;;;6.15;56.99;103075.06;5052818;28;20032;-68
2023/04/20 01:53:24;;;;;;;1.17;0.60;;;;;;;6.13;57.49;103072.53;5051648;28;20025;-68
2023/04/20 01:55:50;;;;;;;2.35;0.60;;;;;;;6.13;57.45;103071.69;5052727;28;20523;-68
2023/04/20 01:58:15;;;;;;;0.88;0.70;;;;;;;6.09;57.80;103066.56;5051453;28;20061;-67
2023/04/20 02:00:41;;;;;;;1.08;0.70;;;;;;;6.07;57.42;103071.16;5051133;28;20122;-67
2023/04/20 02:03:06;;;;;;;3.80;0.80;;;;;;;6.05;57.61;103072.22;5051014;28;20404;-67
2023/04/20 02:05:32;;;;;;;2.40;1.00;;;;;;;5.83;57.88;103046.22;5050229;28;20028;-68
2023/04/20 02:07:57;;;;;;;4.72;0.65;;;;;;;5.95;57.67;103060.50;5052643;28;20154;-68
2023/04/20 02:10:23;;;;;;;3.42;0.70;;;;;;;5.92;58.18;103063.38;5066617;28;20093;-68
2023/04/20 02:12:48;;;;;;;0.90;0.70;;;;;;;5.83;58.09;103064.94;5060732;28;20352;-68
2023/04/20 02:15:14;;;;;;;1.88;0.90;;;;;;;5.81;58.16;103062.34;5053817;28;20507;-68
2023/04/20 02:17:40;;;;;;;1.85;0.70;;;;;;;5.80;58.50;103057.13;5053694;28;20037;-68
2023/04/20 02:20:08;;;;;;;3.17;0.80;;;;;;;5.67;58.57;103053.66;5051561;28;20403;-68
2023/04/20 02:22:34;;;;;;;2.13;0.80;;;;;;;5.71;58.83;103065.81;5034997;28;20036;-67
2023/04/20 02:25:09;;;;;;;1.35;0.65;;;;;;;5.68;58.81;103066.88;5051041;28;20036;-68
2023/04/20 02:27:35;;;;;;;1.13;0.85;;;;;;;5.51;59.29;103036.06;5051329;28;20130;-68
2023/04/20 02:30:00;;;;;;;1.20;0.70;;;;;;;5.57;59.34;103059.66;5052571;28;20041;-67
2023/04/20 02:32:26;;;;;;;1.08;0.70;;;;;;;5.59;59.65;103056.84;5052332;28;20044;-67
2023/04/20 02:34:51;;;;;;;1.95;0.70;;;;;;;5.58;59.96;103052.50;5056564;28;20090;-68
2023/04/20 02:37:17;;;;;;;1.17;0.65;;;;;;;5.48;59.74;103049.63;5058927;28;20029;-67
2023/04/20 02:39:43;;;;;;;1.85;0.60;;;;;;;5.52;59.78;103059.13;5056814;28;20029;-67
2023/04/20 02:42:08;;;;;;;4.18;0.90;;;;;;;5.45;60.29;103046.31;5058138;28;20080;-68
2023/04/20 02:44:34;;;;;;;1.58;0.80;;;;;;;5.42;60.10;103053.59;5057915;28;20084;-68
2023/04/20 02:46:59;;;;;;;2.50;0.73;;;;;;;5.45;60.28;103047.19;5057546;28;20035;-67
2023/04/20 02:49:25;;;;;;;1.40;0.70;;;;;;;5.41;60.47;103046.53;5057181;28;20029;-67
2023/04/20 02:51:50;;;;;;;0.95;0.70;;;;;;;5.35;60.73;103043.47;5058569;28;20055;-68
2023/04/20 02:54:16;;;;;;;2.45;1.02;;;;;;;5.41;60.71;103043.03;5059484;28;20025;-67
2023/04/20 02:56:41;;;;;;;1.02;0.70;;;;;;;5.49;60.61;103050.47;5056783;28;20468;-67
2023/04/20 02:59:07;;;;;;;1.27;0.82;;;;;;;5.52;60.74;103045.75;5057907;28;20025;-67
2023/04/20 03:01:32;;;;;;;1.60;0.80;;;;;;;5.49;60.98;103046.00;5058158;28;20133;-68
2023/04/20 03:03:57;;;;;;;2.30;0.77;;;;;;;5.33;61.18;103029.34;5057245;28;20032;-67
2023/04/20 03:06:23;;;;;;;2.40;1.38;;;;;;;5.37;61.66;103044.22;5040652;28;20427;-67
2023/04/20 03:08:48;;;;;;;1.10;0.60;;;;;;;5.29;61.23;103044.75;5058281;28;20045;-68
2023/04/20 03:11:14;;;;;;;2.35;0.70;;;;;;;4.90;61.40;102987.94;5057796;28;20105;-68
2023/04/20 03:13:40;;;;;;;1.23;0.90;;;;;;;5.24;61.53;103043.38;5058370;28;20510;-68
2023/04/20 03:16:06;;;;;;;1.73;0.70;;;;;;;5.19;61.82;103043.69;5058246;28;20025;-67
2023/04/20 03:18:31;;;;;;;4.07;0.80;;;;;;;5.04;62.34;103016.31;5058015;28;20192;-68
2023/04/20 03:20:57;;;;;;;1.60;0.85;;;;;;;5.11;62.26;103049.59;5058120;28;20041;-67
2023/04/20 03:23:22;;;;;;;1.35;0.77;;;;;;;5.05;62.34;103034.00;5056093;28;20329;-68
2023/04/20 03:25:48;;;;;;;2.60;0.88;;;;;;;4.83;62.10;103015.13;5055738;28;20039;-67
2023/04/20 03:28:15;;;;;;;3.28;0.80;;;;;;;4.97;62.21;103043.50;5055813;28;20156;-68
2023/04/20 03:30:40;;;;;;;3.95;0.90;;;;;;;4.85;62.61;103050.56;5056795;28;20043;-68
2023/04/20 03:35:48;;;;;;;1.08;0.77;;;;;;;4.89;62.74;103041.38;5054961;22;20061;-68
2023/04/20 03:38:13;;;;;;;4.75;0.80;;;;;;;4.86;62.72;103046.91;5037901;28;20034;-67
2023/04/20 03:40:39;;;;;;;2.42;0.85;;;;;;;4.82;62.73;103048.94;5020419;28;20030;-67
2023/04/20 03:43:05;;;;;;;3.53;1.00;;;;;;;4.71;62.98;103031.03;5042023;28;20293;-67
2023/04/20 03:45:30;;;;;;;3.55;0.80;;;;;;;4.88;62.45;103042.34;5040049;28;20022;-68
2023/04/20 03:47:55;;;;;;;1.02;0.80;;;;;;;4.93;62.95;103045.53;5038594;28;20067;-67
2023/04/20 03:50:21;;;;;;;2.25;1.33;;;;;;;4.71;62.87;103015.03;5039121;28;20057;-67
2023/04/20 03:52:46;;;;;;;1.75;0.80;;;;;;;4.96;62.71;103047.97;5039174;28;20037;-67
2023/04/20 03:55:12;;;;;;;2.47;0.80;;;;;;;4.95;62.74;103048.94;5039577;28;20410;-67
2023/04/20 03:57:37;;;;;;;2.55;0.90;;;;;;;5.00;62.34;103048.63;5039184;28;20484;-67
2023/04/20 04:00:03;;;;;;;3.17;0.90;;;;;;;5.02;62.30;103039.56;5040723;28;20049;-67
2023/04/20 04:02:30;;;;;;;2.42;0.82;;;;;;;5.05;62.73;103043.81;5021424;28;20120;-69
2023/04/20 04:04:56;;;;;;;3.25;0.90;;;;;;;4.88;62.79;103011.19;5040509;28;20153;-69
2023/04/20 04:07:21;;;;;;;3.00;0.90;;;;;;;5.11;62.27;103046.06;5041653;28;20479;-68
2023/04/20 04:09:47;;;;;;;1.05;0.77;;;;;;;5.04;62.22;103016.31;5038784;28;20091;-68
2023/04/20 04:12:12;;;;;;;1.52;0.68;;;;;;;5.67;61.09;103000.22;5018405;28;20033;-69
2023/04/20 04:14:38;;;;;;;0.82;0.68;;;;;;;6.63;58.71;103043.75;5018593;28;20069;-68
2023/04/20 04:17:03;;;;;;;2.70;0.80;;;;;;;7.09;57.45;103033.97;5019605;28;20022;-68
2023/04/20 04:19:29;;;;;;;0.60;0.60;;;;;;;7.70;55.31;103042.41;5002776;28;20105;-68
2023/04/20 04:21:54;;;;;;;3.83;0.70;;;;;;;8.42;53.36;103037.28;5018138;28;20030;-69
2023/04/20 04:24:20;;;;;;;1.58;0.77;;;;;;;8.62;52.67;103038.28;5019531;28;20041;-69
2023/04/20 04:26:46;;;;;;;2.10;0.63;;;;;;;9.16;51.58;103039.84;5018165;28;20041;-68
2023/04/20 04:29:11;;;;;;;4.22;0.80;;;;;;;9.17;50.94;103024.56;5019530;28;20034;-69
2023/04/20 04:31:37;;;;;;;0.95;0.70;;;;;;;9.84;49.51;103037.34;5024321;28;20503;-69
2023/04/20 04:34:03;;;;;;;1.05;0.55;;;;;;;9.64;48.21;103036.47;5035261;28;20026;-68
2023/04/20 04:36:28;;;;;;;3.30;0.80;;;;;;;10.16;47.37;103038.06;5037034;28;20560;-69
2023/04/20 04:38:53;;;;;;;4.15;0.70;;;;;;;10.56;46.77;103033.41;5039606;28;20447;-68
2023/04/20 04:41:20;;;;;;;1.17;0.70;;;;;;;10.70;46.22;103047.41;5038239;28;20021;-69
2023/04/20 04:43:46;;;;;;;2.55;0.60;;;;;;;10.53;46.13;103054.38;5038491;28;20516;-69
2023/04/20 04:46:13;;;;;;;1.33;0.50;;;;;;;10.32;46.88;103046.44;5040080;28;20112;-68
2023/04/20 04:48:41;;;;;;;3.72;0.60;;;;;;;10.67;45.86;103051.22;5039081;28;20116;-69
2023/04/20 04:51:09;;;;;;;2.53;0.88;;;;;;;10.73;45.25;103039.88;5039148;28;20099;-69
2023/04/20 04:53:35;;;;;;;0.80;0.60;;;;;;;10.94;45.02;103057.69;5038018;28;20037;-69
2023/04/20 04:56:01;;;;;;;1.88;0.68;;;;;;;10.60;44.79;103044.72;5038794;28;20068;-69
2023/04/20 04:58:27;;;;;;;1.92;0.57;;;;;;;11.27;43.92;103057.13;5039974;28;20029;-71
2023/04/20 05:00:52;;;;;;;1.85;0.60;;;;;;;11.46;42.98;103058.91;5040114;28;20366;-69
2023/04/20 05:03:17;;;;;;;4.78;0.95;;;;;;;11.34;42.94;103048.44;5040278;28;20439;-70
2023/04/20 05:05:43;;;;;;;1.58;0.60;;;;;;;11.42;43.57;103052.09;5022106;28;20033;-70
2023/04/20 05:08:08;;;;;;;1.63;0.68;;;;;;;11.62;42.84;103052.84;5032757;28;20033;-68
2023/04/20 05:10:34;;;;;;;2.88;0.70;;;;;;;11.64;42.64;103050.84;5036680;28;20034;-70
2023/04/20 05:12:59;;;;;;;2.80;0.60;;;;;;;12.22;41.82;103055.84;5038240;28;20059;-70
2023/04/20 05:15:25;;;;;;;0.98;0.50;;;;;;;12.17;41.54;103050.06;5038762;28;20531;-70
2023/04/20 05:17:51;;;;;;;2.15;0.70;;;;;;;12.06;41.49;103058.41;5035953;28;20414;-69
2023/04/20 05:20:17;;;;;;;0.98;0.80;;;;;;;12.06;41.28;103042.22;5035495;28;20024;-69
2023/04/20 05:22:43;;;;;;;1.05;0.60;;;;;;;11.68;41.75;103040.59;5035345;28;20021;-70
2023/04/20 05:25:10;;;;;;;0.90;0.60;;;;;;;10.06;45.38;103044.28;5037556;28;20024;-71
2023/04/20 05:27:35;;;;;;;1.02;0.60;;;;;;;9.57;47.40;103040.69;5037795;28;20025;-69
2023/04/20 05:30:01;;;;;;;0.88;0.60;;;;;;;9.46;47.47;103050.69;5038279;28;20033;-69
2023/04/20 05:32:27;;;;;;;2.95;0.75;;;;;;;9.32;48.09;103047.38;5039042;28;20043;-69
2023/04/20 05:34:52;;;;;;;2.13;0.60;;;;;;;8.99;48.89;103045.00;5039178;28;20084;-70
2023/04/20 05:37:17;;;;;;;0.50;0.40;;;;;;;9.35;48.25;103052.50;5037947;28;20153;-68
2023/04/20 05:39:43;;;;;;;1.80;0.70;;;;;;;9.05;48.77;103049.84;5038566;28;20109;-69
2023/04/20 05:42:08;;;;;;;2.70;0.70;;;;;;;9.07;49.64;103050.53;5036968;28;20053;-68
2023/04/20 05:44:35;;;;;;;1.13;0.60;;;;;;;9.28;49.09;103047.81;5040173;28;20456;-69
2023/04/20 05:47:01;;;;;;;1.10;0.50;;;;;;;9.29;48.57;103047.66;5045664;28;20047;-68
2023/04/20 05:49:26;;;;;;;1.42;0.50;;;;;;;8.99;49.16;103034.25;5037014;28;20116;-69
2023/04/20 05:51:52;;;;;;;1.58;0.47;;;;;;;8.93;49.64;103047.22;5037057;28;20111;-68
2023/04/20 05:54:17;;;;;;;1.38;0.60;;;;;;;8.88;49.75;103046.78;5043678;28;20037;-69
2023/04/20 05:56:43;;;;;;;1.85;0.55;;;;;;;8.82;49.49;103052.66;5042964;28;20099;-68
2023/04/20 05:59:09;;;;;;;1.90;0.68;;;;;;;8.72;50.05;103046.41;5016751;28;20083;-69
2023/04/20 06:01:34;;;;;;;2.47;0.60;;;;;;;8.96;49.84;103053.31;5037054;28;20048;-69
2023/04/20 06:04:00;;;;;;;2.55;0.60;;;;;;;9.35;49.34;103049.81;5037623;28;20496;-70
2023/04/20 06:06:25;;;;;;;2.30;0.60;;;;;;;9.69;48.29;103054.84;5040819;28;20061;-70
2023/04/20 06:08:51;;;;;;;1.30;0.50;;;;;;;9.48;48.15;103049.56;5022732;28;20029;-71
2023/04/20 06:11:17;;;;;;;3.10;0.50;;;;;;;9.58;48.36;103050.44;5037952;28;20091;-69
2023/04/20 06:13:42;;;;;;;2.05;0.50;;;;;;;9.63;48.52;103048.22;5036774;28;20029;-70
2023/04/20 06:16:09;;;;;;;0.85;0.30;;;;;;;9.71;47.52;103044.81;5041214;28;20029;-71
2023/04/20 06:18:36;;;;;;;2.05;0.70;;;;;;;10.14;46.52;103040.06;5040937;28;20564;-71
2023/04/20 06:21:02;;;;;;;2.20;0.55;;;;;;;9.94;47.24;103028.44;5041351;28;20029;-68
2023/04/20 06:23:27;;;;;;;2.45;0.60;;;;;;;10.21;46.35;103047.41;5041914;28;20030;-71
2023/04/20 06:25:53;;;;;;;2.10;0.75;;;;;;;10.24;46.47;103051.66;5041242;28;20021;-72
2023/04/20 06:28:18;;;;;;;1.08;0.50;;;;;;;10.22;46.43;103032.13;5024960;28;20037;-71
2023/04/20 06:30:44;;;;;;;2.17;0.60;;;;;;;10.46;46.32;103054.09;5063665;28;20026;-71
2023/04/20 06:33:15;;;;;;;1.27;0.52;;;;;;;10.75;46.20;103053.19;5026568;28;20026;-72
2023/04/20 06:35:41;;;;;;;2.00;0.40;;;;;;;10.71;45.28;103057.16;5038893;28;20057;-69
2023/04/20 06:38:07;;;;;;;0.70;0.40;;;;;;;10.87;45.25;103053.88;5038041;28;20049;-70
2023/04/20 06:40:33;;;;;;;1.08;0.40;;;;;;;10.87;44.39;103053.88;5038928;28;20021;-70
2023/04/20 06:42:58;;;;;;;2.58;0.63;;;;;;;11.35;44.11;103052.84;5066831;28;20029;-70
2023/04/20 06:45:23;;;;;;;1.13;0.50;;;;;;;11.29;43.86;103044.38;5045570;28;20042;-72
2023/04/20 06:47:49;;;;;;;3.25;0.70;;;;;;;11.37;44.22;103038.22;5046985;28;20090;-72
2023/04/20 06:50:14;;;;;;;4.35;0.40;;;;;;;11.74;42.91;103037.28;5041531;28;20057;-71
2023/04/20 06:52:40;;;;;;;1.45;0.32;;;;;;;11.35;43.16;103052.84;5040455;28;20485;-70
2023/04/20 06:55:06;;;;;;;1.17;0.60;;;;;;;11.39;43.05;103043.44;5041168;28;20034;-71
2023/04/20 06:57:31;;;;;;;0.93;0.47;;;;;;;11.63;42.70;103032.13;5023637;28;20029;-71
2023/04/20 07:00:00;;;;;;;1.17;0.30;;;;;;;11.93;42.79;103044.44;5023459;28;20392;-71
2023/04/20 07:02:26;;;;;;;1.73;0.50;;;;;;;12.17;42.05;103039.25;5041630;28;20038;-71
2023/04/20 07:04:51;;;;;;;2.00;0.60;;;;;;;12.25;41.48;103043.91;5056879;28;20201;-69
2023/04/20 07:07:17;;;;;;;2.28;0.63;;;;;;;12.38;41.59;103036.25;5040246;28;20052;-70
2023/04/20 07:09:42;;;;;;;1.45;0.68;;;;;;;12.44;41.12;103037.47;5039159;28;20092;-71
2023/04/20 07:12:10;;;;;;;6.50;0.80;;;;;;;12.24;41.61;103042.19;5040011;28;20040;-72
2023/04/20 07:14:35;;;;;;;2.70;0.80;;;;;;;12.89;40.75;103006.72;5043941;28;20036;-71
2023/04/20 07:17:01;;;;;;;2.55;0.85;;;;;;;12.91;39.48;103037.09;5040860;28;20037;-71
2023/04/20 07:19:26;;;;;;;2.22;0.85;;;;;;;12.89;40.10;103031.88;5040869;28;20151;-71
2023/04/20 07:21:52;;;;;;;3.20;1.08;;;;;;;12.97;39.62;103022.13;5043121;28;20025;-71
2023/04/20 07:24:17;;;;;;;3.65;0.90;;;;;;;12.97;39.69;103020.25;5044529;28;20045;-71
2023/04/20 07:26:42;;;;;;;1.52;0.70;;;;;;;12.72;38.89;102996.81;5028106;28;20481;-71
2023/04/20 07:29:08;;;;;;;6.50;0.93;;;;;;;12.56;38.95;103011.91;5045239;28;20061;-70
2023/04/20 07:31:33;;;;;;;3.92;0.80;;;;;;;12.88;39.00;103013.97;5044072;28;20029;-71
2023/04/20 07:33:59;;;;;;;3.40;1.30;;;;;;;12.98;38.28;103000.34;5044784;28;20033;-71
2023/04/20 07:36:25;;;;;;;4.80;1.50;;;;;;;13.04;38.30;103013.19;5027948;28;20135;-72
2023/04/20 07:38:51;;;;;;;5.35;1.40;;;;;;;12.66;38.00;103018.06;5027931;28;20033;-71
2023/04/20 07:41:16;;;;;;;5.15;1.20;;;;;;;12.99;37.78;103001.19;5028070;28;20033;-71
2023/04/20 07:43:43;;;;;;;5.07;0.82;;;;;;;12.61;37.93;103006.84;5061194;28;20029;-71
2023/04/20 07:46:09;;;;;;;7.57;0.90;;;;;;;12.40;37.81;103006.38;5044405;28;20030;-71
2023/04/20 07:48:35;;;;;;;2.95;0.68;;;;;;;12.73;37.79;102995.81;5044451;28;20037;-71
2023/04/20 07:51:00;;;;;;;0.75;0.40;;;;;;;12.66;37.49;102995.59;5045070;28;20025;-71
2023/04/20 07:53:27;;;;;;;1.85;0.70;;;;;;;12.86;37.57;102994.38;5026996;28;20234;-72
2023/04/20 07:55:55;;;;;;;2.25;0.75;;;;;;;12.84;37.36;103000.94;5044514;28;20140;-71
2023/04/20 07:58:20;;;;;;;5.28;0.85;;;;;;;12.96;37.57;102999.66;5042516;28;20468;-71
2023/04/20 08:00:47;;;;;;;4.30;0.80;;;;;;;13.05;36.95;102997.84;5045982;28;20029;-71
2023/04/20 08:03:13;;;;;;;3.72;0.55;;;;;;;13.27;36.63;102981.06;5042262;28;20052;-71
2023/04/20 08:05:39;;;;;;;2.63;0.82;;;;;;;13.09;36.72;102988.41;5044997;28;20029;-72
2023/04/20 08:08:05;;;;;;;4.22;0.82;;;;;;;13.82;35.92;102998.63;5024387;28;20175;-71
2023/04/20 08:10:30;;;;;;;2.30;0.65;;;;;;;13.20;35.54;102984.56;5043536;28;20033;-72
2023/04/20 08:12:56;;;;;;;3.33;0.65;;;;;;;13.44;35.75;102995.47;5008190;28;20042;-70
2023/04/20 08:15:22;;;;;;;3.78;0.63;;;;;;;13.55;35.15;103002.44;5043985;28;20025;-69
2023/04/20 08:17:47;;;;;;;3.65;0.70;;;;;;;13.92;35.16;102995.75;5045367;28;20435;-70
2023/04/20 08:20:12;;;;;;;4.18;0.70;;;;;;;13.47;35.07;102997.84;5044194;28;20049;-72
2023/04/20 08:22:38;;;;;;;10.27;0.80;;;;;;;13.31;35.04;102960.81;5045746;28;20112;-71
2023/04/20 08:25:05;;;;;;;7.38;1.00;;;;;;;13.59;35.46;103001.94;5028602;28;20512;-72
2023/04/20 08:27:31;;;;;;;4.35;1.00;;;;;;;13.90;34.79;102986.94;5046729;28;20036;-71
2023/04/20 08:29:56;;;;;;;4.22;0.70;;;;;;;13.90;34.11;102984.25;5061494;28;20021;-71
2023/04/20 08:32:25;;;;;;;2.92;0.73;;;;;;;13.58;33.60;102991.31;5045575;28;20396;-71
2023/04/20 08:34:50;;;;;;;6.00;1.15;;;;;;;14.07;33.97;102977.81;5061821;28;20187;-71
2023/04/20 08:37:16;;;;;;;5.45;1.00;;;;;;;13.98;33.64;102984.25;5028237;28;20057;-72
2023/04/20 08:39:41;;;;;;;3.58;0.90;;;;;;;13.84;33.16;102992.03;5044039;28;20096;-72
2023/04/20 08:42:07;;;;;;;3.13;1.20;;;;;;;14.17;33.12;102983.06;5024116;28;20033;-69
2023/04/20 08:44:32;;;;;;;2.17;0.70;;;;;;;14.09;33.05;102987.47;5042227;28;20053;-69
2023/04/20 08:46:58;;;;;;;1.95;0.80;;;;;;;14.51;32.31;102983.75;5042134;28;20100;-67
2023/04/20 08:49:28;;;;;;;1.15;0.75;;;;;;;14.62;31.42;102949.19;5040320;28;20041;-69
2023/04/20 08:51:53;;;;;;;4.97;0.90;;;;;;;14.78;31.46;102968.09;5041142;28;20032;-70
2023/04/20 08:54:19;;;;;;;4.55;0.98;;;;;;;15.14;31.38;102965.75;5040872;28;20033;-69
2023/04/20 08:56:46;;;;;;;1.13;0.70;;;;;;;14.94;31.17;102969.91;5039526;28;20239;-70
2023/04/20 08:59:13;;;;;;;2.40;0.85;;;;;;;14.91;31.93;102981.09;5040033;28;20026;-68
2023/04/20 09:01:40;;;;;;;3.90;0.70;;;;;;;14.98;31.00;102966.66;5039807;28;20028;-71
2023/04/20 09:04:25;;;;;;;3.15;0.60;;;;;;;14.81;30.38;102965.03;5040629;28;20037;-71
2023/04/20 09:06:52;;;;;;;3.63;0.70;;;;;;;14.99;31.19;102979.19;5046245;28;20029;-71
2023/04/20 09:09:19;;;;;;;1.55;0.75;;;;;;;15.05;31.24;102918.00;5045184;28;20038;-71
2023/04/20 09:11:45;;;;;;;2.05;0.75;;;;;;;15.39;30.86;102955.59;5041901;28;20091;-71
2023/04/20 09:14:13;;;;;;;4.10;0.80;;;;;;;15.16;30.95;102957.44;5038883;28;20025;-71
2023/04/20 09:16:59;;;;;;;5.55;0.90;;;;;;;15.67;30.91;102971.44;5040262;28;20040;-72
2023/04/20 09:19:26;;;;;;;3.75;0.75;;;;;;;15.56;30.67;102963.66;5039099;28;20476;-73
2023/04/20 09:21:53;;;;;;;3.97;0.70;;;;;;;15.64;30.78;102961.75;5042769;28;20061;-70
2023/04/20 09:24:29;;;;;;;4.75;0.80;;;;;;;15.96;30.88;102968.00;5039102;28;20049;-71
2023/04/20 09:26:55;;;;;;;1.92;0.63;;;;;;;16.25;30.38;102975.34;5039517;28;20017;-69
2023/04/20 09:29:24;;;;;;;3.88;1.35;;;;;;;16.25;30.80;102961.78;5041315;28;20036;-70
2023/04/20 09:31:50;;;;;;;3.33;1.00;;;;;;;16.16;30.76;102958.31;5039929;28;20527;-70
2023/04/20 09:34:18;;;;;;;2.72;0.68;;;;;;;15.87;30.75;102983.50;5041638;28;20033;-71
2023/04/20 09:36:51;;;;;;;3.67;0.77;;;;;;;16.08;30.56;102961.09;5039044;28;20067;-69
2023/04/20 09:39:21;;;;;;;2.03;0.63;;;;;;;16.37;30.18;102945.88;5033182;28;20037;-69
2023/04/20 09:41:47;;;;;;;0.82;0.60;;;;;;;16.37;30.23;102963.03;5037015;28;20053;-68
2023/04/20 09:44:15;;;;;;;1.30;0.50;;;;;;;16.08;29.82;102955.66;5034569;28;20060;-69
2023/04/20 09:46:41;;;;;;;1.60;0.60;;;;;;;16.17;29.84;102951.84;5038498;28;20029;-68
2023/04/20 09:49:08;;;;;;;6.53;0.60;;;;;;;16.35;30.18;102965.06;5038146;28;20031;-69
2023/04/20 09:51:43;;;;;;;3.72;0.93;;;;;;;16.84;29.71;102970.03;5023084;28;20029;-69
2023/04/20 09:54:09;;;;;;;1.90;0.50;;;;;;;16.84;29.73;102950.97;5038401;28;20552;-69
2023/04/20 09:56:35;;;;;;;4.55;0.90;;;;;;;16.58;29.74;102958.72;5037262;28;20033;-69
2023/04/20 09:59:02;;;;;;;1.77;0.70;;;;;;;16.76;29.96;102959.25;5020415;28;20029;-69
2023/04/20 10:01:33;;;;;;;1.85;0.50;;;;;;;17.08;29.46;102938.94;5035271;28;20110;-69
2023/04/20 10:04:01;;;;;;;2.03;0.80;;;;;;;17.00;28.77;102960.00;5034665;28;20017;-69
2023/04/20 10:06:31;;;;;;;3.25;0.60;;;;;;;16.70;29.20;102972.72;5037660;28;20508;-70
2023/04/20 10:09:00;;;;;;;5.15;1.10;;;;;;;17.01;28.98;102946.19;5037026;28;20034;-70
2023/04/20 10:11:31;;;;;;;3.28;0.65;;;;;;;17.34;29.37;102953.91;5040283;28;20067;-69
2023/04/20 10:13:58;;;;;;;4.38;0.88;;;;;;;17.38;28.90;102947.03;5041742;28;20029;-69
2023/04/20 10:16:24;;;;;;;2.65;0.70;;;;;;;17.36;28.67;102958.13;5037217;28;20029;-69
2023/04/20 10:19:01;;;;;;;2.53;0.70;;;;;;;17.46;28.03;102943.38;5036117;28;20129;-69
2023/04/20 10:21:28;;;;;;;2.92;0.60;;;;;;;17.81;28.06;102944.38;5039801;28;20022;-69
2023/04/20 10:23:55;;;;;;;2.58;0.77;;;;;;;17.68;28.68;102945.09;5038466;28;20367;-69
2023/04/20 10:26:21;;;;;;;2.65;0.60;;;;;;;17.51;28.09;102936.28;5037546;28;20032;-70
2023/04/20 10:28:47;;;;;;;1.50;0.73;;;;;;;17.59;28.16;102954.41;5038339;28;20108;-69
2023/04/20 10:31:14;;;;;;;1.92;0.60;;;;;;;17.64;27.88;102946.47;5039745;28;20344;-70
2023/04/20 10:33:52;;;;;;;3.25;0.82;;;;;;;17.56;27.22;102935.75;5043176;28;20052;-70
2023/04/20 10:36:29;;;;;;;4.85;0.85;;;;;;;17.54;27.68;102935.06;5033750;28;20049;-70
2023/04/20 10:38:56;;;;;;;1.30;0.60;;;;;;;17.76;27.78;102925.91;5049024;28;20647;-74
2023/04/20 10:41:22;;;;;;;2.85;0.82;;;;;;;18.03;27.44;102934.31;5045647;28;20041;-70
2023/04/20 10:43:47;;;;;;;1.20;0.80;;;;;;;18.42;27.08;102930.22;5041999;28;20060;-70
2023/04/20 10:46:17;;;;;;;1.63;0.90;;;;;;;18.06;26.64;102929.31;5040776;28;20030;-69
2023/04/20 10:49:00;;;;;;;2.78;1.00;;;;;;;18.07;26.74;102935.59;5039627;28;20053;-69
2023/04/20 10:51:26;;;;;;;1.33;0.60;;;;;;;17.90;26.64;102921.41;5041439;28;20029;-70
2023/04/20 10:54:06;;;;;;;3.17;0.60;;;;;;;17.88;26.34;102903.59;5042542;28;20033;-69
2023/04/20 10:56:43;;;;;;;2.67;0.70;;;;;;;18.18;26.50;102918.72;5047704;28;20502;-70
2023/04/20 10:59:10;;;;;;;1.17;0.77;;;;;;;18.11;26.57;102917.81;5047209;28;20095;-69
2023/04/20 11:01:36;;;;;;;2.33;0.90;;;;;;;18.16;26.26;102909.91;5040356;28;20033;-70
2023/04/20 11:04:01;;;;;;;1.05;0.70;;;;;;;18.05;26.49;102903.13;5041373;28;20026;-70
2023/04/20 11:06:27;;;;;;;3.03;0.82;;;;;;;17.97;25.87;102905.97;5042318;28;20025;-70
2023/04/20 11:08:52;;;;;;;5.38;0.77;;;;;;;18.51;26.12;102908.03;5023408;28;20511;-70
2023/04/20 11:11:20;;;;;;;2.08;0.70;;;;;;;18.38;25.74;102907.97;5027950;28;20055;-70
2023/04/20 11:13:45;;;;;;;2.72;1.02;;;;;;;18.72;25.44;102895.38;5028276;28;20037;-69
2023/04/20 11:16:12;;;;;;;3.95;1.08;;;;;;;18.51;25.34;102909.94;5045777;28;20039;-71
2023/04/20 11:18:54;;;;;;;1.75;0.90;;;;;;;18.95;24.99;102898.63;5042694;28;20443;-69
2023/04/20 11:21:21;;;;;;;3.35;1.00;;;;;;;18.69;25.45;102893.88;5042097;28;20041;-71
2023/04/20 11:23:47;;;;;;;4.63;0.90;;;;;;;18.89;25.45;102887.69;5028355;28;20106;-71
2023/04/20 11:26:13;;;;;;;1.30;0.90;;;;;;;19.17;25.04;102890.28;5045430;28;20121;-71
2023/04/20 11:28:51;;;;;;;4.22;1.10;;;;;;;19.23;24.56;102894.94;5043345;28;20091;-69